St. Thomas, Canada
Current Conditions -  °F | °C
As of 4:00 AM on Wednesday 28 Jan 2015 (Local Time) from CYXU Reporting Station
Clear Clear  
Wind Chill: -2°   Ceiling: Unl
Heat Index: -2°   Visibility: 15mi
Dew Point: -6°   Wind: 3mph
Humidity: 85%   Direction: 310°NW
Pressure: 30.21"   Gusts: NA
Location:  42.78°N, 81.19°W
Report Text: CYXU 280900Z 31003KT 15SM SKC M19/M21 A3021 RMK FROIN SLP253
Loading
Personal Weather Stations






























Interactive Weather Map New forecast layout! Learn more

10-Day Weather Forecast

Advertisements
Track Severe Weather on mobile